Time;durP1;ratioP1;P1;durP2;ratioP2;P2;SDS_P1;SDS_P2;PMS_P1;PMS_P2;Temp;Humidity;BMP_temperature;BMP_pressure;BME280_temperature;BME280_humidity;BME280_pressure;Samples;Min_cycle;Max_cycle;Signal;HPM_P1;HPM_P2
2022/09/30 00:00:47;;;;;;;37.50;27.50;;;;;;;8.80;83.21;98059.38;88614;1285;98044;-72
2022/09/30 00:03:52;;;;;;;;;;;;;;;;;;;;;
2022/09/30 00:06:54;;;;;;;47.40;29.30;;;;;;;8.79;83.35;98056.08;88357;1285;97387;-73
2022/09/30 00:09:49;;;;;;;37.80;27.30;;;;;;;8.80;83.42;98052.69;88371;1285;22619;-76
2022/09/30 00:12:32;;;;;;;;;;;;;;;;;;;;;
2022/09/30 00:15:36;;;;;;;40.20;28.30;;;;;;;8.83;83.51;98046.56;88315;1285;22585;-72
2022/09/30 00:18:31;;;;;;;43.80;28.90;;;;;;;8.85;83.64;98042.11;88069;1287;99730;-73
2022/09/30 00:24:37;;;;;;;44.40;28.70;;;;;;;8.88;83.59;98043.71;87730;1291;99026;-72
2022/09/30 00:27:30;;;;;;;42.60;27.70;;;;;;;8.89;83.73;98046.78;87282;1297;22641;-72
2022/09/30 00:30:33;;;;;;;44.10;28.00;;;;;;;8.90;83.77;98048.46;87384;1294;97687;-73
2022/09/30 00:32:52;;;;;;;;;;;;;;;;;;;;;
2022/09/30 00:35:57;;;;;;;49.10;29.90;;;;;;;8.93;83.46;98049.34;87857;1291;99250;-73
2022/09/30 00:38:31;;;;;;;41.70;29.00;;;;;;;8.96;83.60;98051.25;87302;1294;22606;-72
2022/09/30 00:41:34;;;;;;;37.30;28.60;;;;;;;8.98;83.83;98050.09;87064;1300;97606;-74
2022/09/30 00:44:15;;;;;;;;;;;;;;;;;;;;;
2022/09/30 00:53:42;;;;;;;39.00;26.90;;;;;;;9.04;83.79;98039.62;87131;1301;97765;-73
2022/09/30 00:56:44;;;;;;;41.20;29.00;;;;;;;9.05;83.81;98040.46;87052;1300;22635;-74
2022/09/30 00:59:35;;;;;;;40.50;28.30;;;;;;;9.03;83.82;98043.30;86879;1303;98984;-74
2022/09/30 01:02:11;;;;;;;37.00;26.70;;;;;;;9.03;83.67;98049.28;86932;1302;23407;-74
2022/09/30 01:08:18;;;;;;;33.50;24.70;;;;;;;9.03;83.73;98058.06;86825;1305;22618;-72
2022/09/30 01:11:00;;;;;;;;;;;;;;;;;;;;;
2022/09/30 01:20:46;;;;;;;36.00;24.80;;;;;;;9.07;83.54;98060.82;86677;1306;22801;-75
2022/09/30 01:23:25;;;;;;;;;;;;;;;;;;;;;
2022/09/30 01:29:46;;;;;;;45.80;25.00;;;;;;;9.07;83.81;98050.48;86376;1312;98554;-73
2022/09/30 01:32:50;;;;;;;36.80;25.50;;;;;;;9.09;83.96;98061.59;86654;1306;22547;-73
2022/09/30 01:35:57;;;;;;;40.80;25.80;;;;;;;9.10;83.79;98061.02;86764;1306;99080;-73
2022/09/30 01:39:05;;;;;;;38.60;26.00;;;;;;;9.12;83.81;98060.04;87001;1300;22522;-72
2022/09/30 01:42:10;;;;;;;38.10;25.00;;;;;;;9.12;83.87;98065.28;87096;1300;98852;-73
2022/09/30 01:45:02;;;;;;;;;;;;;;;;;;;;;
2022/09/30 01:48:24;;;;;;;;;;;;;;;;;;;;;
2022/09/30 01:54:45;;;;;;;39.50;27.00;;;;;;;9.12;83.72;98071.91;87639;1293;98964;-73
2022/09/30 01:57:16;;;;;;;;;;;;;;;9.13;83.90;98076.63;87863;1285;22565;-77
2022/09/30 02:00:20;;;;;;;37.50;26.50;;;;;;;9.12;84.11;98075.98;88518;1284;84129;-73
2022/09/30 02:03:13;;;;;;;40.70;26.90;;;;;;;9.13;83.84;98075.41;88880;1284;22541;-74
2022/09/30 02:06:01;;;;;;;54.90;27.10;;;;;;;9.13;83.99;98070.30;88417;1284;97743;-74
2022/09/30 02:08:56;;;;;;;45.00;28.30;;;;;;;9.14;84.22;98072.73;88397;1284;22600;-73
2022/09/30 02:12:17;;;;;;;43.20;27.30;;;;;;;9.12;83.90;98067.58;87806;1287;98937;-72
2022/09/30 02:15:21;;;;;;;41.20;26.80;;;;;;;9.12;83.94;98068.45;87284;1297;22668;-73
2022/09/30 02:17:44;;;;;;;39.30;28.30;;;;;;;9.11;84.08;98070.40;86904;1302;99289;-72
2022/09/30 02:20:48;;;;;;;45.50;28.30;;;;;;;9.11;84.04;98068.48;86761;1303;22606;-73
2022/09/30 02:23:29;;;;;;;39.90;27.90;;;;;;;9.10;84.16;98061.87;86899;1302;98923;-73
2022/09/30 02:26:48;;;;;;;47.50;28.70;;;;;;;9.10;84.10;98061.69;86916;1302;22655;-73
2022/09/30 02:32:22;;;;;;;34.00;25.70;;;;;;;9.09;84.10;98064.76;85833;1316;22612;-72
2022/09/30 02:35:16;;;;;;;33.70;27.80;;;;;;;9.09;84.19;98065.13;85465;1319;97961;-72
2022/09/30 02:38:02;;;;;;;39.90;25.50;;;;;;;9.09;84.24;98066.17;85947;1316;22560;-74
2022/09/30 02:41:29;;;;;;;44.70;25.80;;;;;;;9.06;84.05;98061.25;85703;1316;22644;-72
2022/09/30 02:44:11;;;;;;;41.70;26.10;;;;;;;9.06;83.90;98065.11;85705;1316;24387;-73
2022/09/30 02:47:13;;;;;;;;;;;;;;;;;;;;;
2022/09/30 02:50:21;;;;;;;41.90;25.00;;;;;;;9.06;84.33;98068.98;86046;1314;22633;-74
2022/09/30 02:53:23;;;;;;;;;;;;;;;;;;;;;
2022/09/30 02:56:24;;;;;;;50.20;24.90;;;;;;;9.07;84.12;98070.66;86444;1306;22597;-74
2022/09/30 02:59:25;;;;;;;38.40;25.90;;;;;;;9.08;84.22;98070.27;86437;1307;99033;-75
2022/09/30 03:01:55;;;;;;;43.60;26.30;;;;;;;9.08;84.38;98070.96;86388;1308;22791;-72
2022/09/30 03:04:52;;;;;;;45.80;27.60;;;;;;;9.08;84.41;98072.15;86925;1302;22760;-72
2022/09/30 03:13:56;;;;;;;35.80;24.20;;;;;;;9.10;84.40;98078.90;86554;1306;25629;-73
2022/09/30 03:16:56;;;;;;;35.30;25.20;;;;;;;9.12;84.54;98077.88;86354;1308;24127;-72
2022/09/30 03:20:06;;;;;;;35.80;24.70;;;;;;;9.14;84.22;98081.50;86277;1309;23213;-73
2022/09/30 03:23:19;;;;;;;39.70;25.00;;;;;;;9.16;84.58;98086.99;86230;1310;24339;-72
2022/09/30 03:26:24;;;;;;;34.30;24.70;;;;;;;9.16;84.53;98085.36;86335;1309;24560;-73
2022/09/30 03:29:27;;;;;;;40.10;26.20;;;;;;;9.18;84.51;98090.71;86295;1308;98030;-73
2022/09/30 03:32:27;;;;;;;36.30;26.40;;;;;;;9.20;84.51;98084.80;86181;1307;22802;-74
2022/09/30 03:38:48;;;;;;;36.10;25.80;;;;;;;9.20;84.71;98079.73;86754;1302;24081;-72
2022/09/30 03:42:04;;;;;;;41.50;26.80;;;;;;;9.19;84.41;98080.30;86601;1302;99012;-72
2022/09/30 03:45:14;;;;;;;41.20;26.30;;;;;;;9.20;84.69;98086.74;86729;1302;24664;-73
2022/09/30 03:48:16;;;;;;;42.00;27.10;;;;;;;9.21;84.63;98088.45;86904;1291;98923;-72
2022/09/30 03:50:58;;;;;;;;;;;;;;;9.21;84.74;98088.45;87209;1293;22724;-72
2022/09/30 03:53:40;;;;;;;;;;;;;;;9.19;84.69;98090.25;87347;1290;84990;-73
2022/09/30 03:56:28;;;;;;;;;;;;;;;9.19;84.75;98094.84;87344;1291;22629;-73
2022/09/30 04:11:14;;;;;;;44.20;27.90;;;;;;;9.19;84.98;98101.88;86614;1302;99356;-72
2022/09/30 04:14:15;;;;;;;43.10;29.90;;;;;;;9.18;84.92;98101.20;86792;1302;22207;-73
2022/09/30 04:16:59;;;;;;;39.20;28.30;;;;;;;9.19;84.91;98102.23;86748;1305;22657;-74
2022/09/30 04:20:00;;;;;;;47.00;30.50;;;;;;;9.20;85.12;98107.41;86498;1306;22701;-73
2022/09/30 04:34:53;;;;;;;49.00;32.00;;;;;;;9.22;85.07;98109.23;86306;1305;23701;-72
2022/09/30 04:37:54;;;;;;;45.10;30.60;;;;;;;9.22;85.15;98110.80;86330;1307;25296;-73
2022/09/30 04:40:48;;;;;;;58.30;32.30;;;;;;;9.24;85.11;98114.58;86641;1302;24106;-72
2022/09/30 04:43:49;;;;;;;43.40;30.10;;;;;;;9.23;85.23;98116.02;86756;1300;22614;-72
2022/09/30 04:46:42;;;;;;;50.10;29.80;;;;;;;9.23;85.13;98118.47;86884;1300;26544;-73
2022/09/30 04:49:14;;;;;;;;;;;;;;;;;;;;;
2022/09/30 04:51:52;;;;;;;;;;;;;;;;;;;;;
2022/09/30 04:54:57;;;;;;;47.90;32.00;;;;;;;9.20;85.20;98115.14;87144;1291;100943;-72
2022/09/30 04:57:59;;;;;;;47.10;31.60;;;;;;;9.19;85.49;98116.73;87247;1290;23892;-72
2022/09/30 05:01:01;;;;;;;50.10;31.80;;;;;;;9.19;85.50;98116.04;87486;1287;98938;-71
2022/09/30 05:04:04;;;;;;;43.80;30.80;;;;;;;9.19;85.51;98117.64;87596;1288;22601;-72
2022/09/30 05:07:07;;;;;;;50.30;30.40;;;;;;;9.19;85.60;98117.11;87498;1288;98875;-72
2022/09/30 05:10:09;;;;;;;45.90;29.40;;;;;;;9.20;85.61;98117.58;87760;1291;22601;-71
2022/09/30 05:13:12;;;;;;;43.90;29.70;;;;;;;9.21;85.68;98121.02;87637;1290;97834;-71
2022/09/30 05:15:57;;;;;;;48.60;30.50;;;;;;;9.16;85.59;98115.52;87379;1287;22584;-70
2022/09/30 05:19:20;;;;;;;38.50;29.10;;;;;;;9.23;85.75;98125.15;87272;1288;98836;-70
2022/09/30 05:22:04;;;;;;;53.50;30.10;;;;;;;9.24;85.53;98132.94;86836;1297;23276;-70
2022/09/30 05:24:47;;;;;;;44.90;28.80;;;;;;;9.24;85.74;98133.66;86916;1297;97879;-70
2022/09/30 05:27:48;;;;;;;39.90;27.60;;;;;;;9.24;85.70;98133.30;86958;1296;22675;-70
2022/09/30 05:34:03;;;;;;;42.60;29.80;;;;;;;9.29;85.57;98142.30;86156;1307;543038;-71
2022/09/30 05:37:05;;;;;;;41.20;29.20;;;;;;;9.28;86.01;98141.47;87981;1284;98495;-72
2022/09/30 05:39:45;;;;;;;;;;;;;;;;;;;;;
2022/09/30 05:42:16;;;;;;;;;;;;;;;;;;;;;
2022/09/30 05:45:12;;;;;;;;;;;;;;;;;;;;;
2022/09/30 05:48:15;;;;;;;46.40;26.60;;;;;;;9.32;85.93;98146.51;83899;1286;5483097;-71
2022/09/30 05:51:19;;;;;;;42.30;29.40;;;;;;;9.35;86.02;98145.64;88099;1285;22722;-71
2022/09/30 05:57:07;;;;;;;38.50;28.00;;;;;;;9.38;86.19;98140.92;87564;1290;22579;-71
2022/09/30 06:00:09;;;;;;;47.00;28.30;;;;;;;9.38;86.01;98140.76;87438;1290;97928;-72
2022/09/30 06:03:03;;;;;;;;;;;;;;;;;;;;;
2022/09/30 06:09:34;;;;;;;38.60;27.10;;;;;;;9.47;86.07;98144.45;85824;1309;543548;-71
2022/09/30 06:12:37;;;;;;;38.70;26.50;;;;;;;9.50;86.06;98152.55;87992;1285;98724;-72
2022/09/30 06:18:42;;;;;;;47.40;27.80;;;;;;;9.55;86.33;98157.86;87707;1289;97219;-72
2022/09/30 06:24:49;;;;;;;44.20;26.60;;;;;;;9.60;86.06;98160.90;83006;1296;98233;-70
2022/09/30 06:27:45;;;;;;;50.30;27.20;;;;;;;9.64;86.46;98160.52;87830;1295;22648;-71
2022/09/30 06:30:46;;;;;;;40.50;27.30;;;;;;;9.67;86.27;98162.80;87082;1300;97552;-72
2022/09/30 06:36:46;;;;;;;40.60;26.30;;;;;;;9.75;86.23;98156.76;86924;1300;97386;-72
2022/09/30 06:39:40;;;;;;;39.80;26.50;;;;;;;9.77;86.39;98160.83;86918;1300;22583;-72
2022/09/30 06:42:40;;;;;;;41.50;25.20;;;;;;;9.80;86.23;98163.63;86727;1300;98870;-71
2022/09/30 06:45:23;;;;;;;40.00;26.10;;;;;;;9.80;86.18;98160.97;86481;1306;22579;-73
2022/09/30 06:48:16;;;;;;;42.30;26.50;;;;;;;9.82;86.40;98162.45;86318;1306;97735;-72
2022/09/30 06:51:10;;;;;;;46.10;27.00;;;;;;;9.85;86.24;98160.19;86015;1310;22657;-70
2022/09/30 06:54:12;;;;;;;40.80;26.00;;;;;;;9.87;86.11;98161.84;85638;1318;97424;-71
2022/09/30 06:57:14;;;;;;;43.10;27.60;;;;;;;9.88;86.25;98166.30;85790;1315;22628;-71
2022/09/30 06:59:44;;;;;;;46.80;27.40;;;;;;;9.91;86.40;98166.15;86027;1309;98543;-71
2022/09/30 07:02:47;;;;;;;44.40;26.40;;;;;;;9.94;86.32;98160.89;86295;1306;25446;-72
2022/09/30 07:05:51;;;;;;;49.70;28.30;;;;;;;9.95;86.31;98161.50;85983;1310;22834;-72
2022/09/30 07:08:40;;;;;;;;;;;;;;;;;;;;;
2022/09/30 07:14:45;;;;;;;43.70;28.70;;;;;;;9.95;86.04;98163.23;85673;1315;22673;-71
2022/09/30 07:17:46;;;;;;;49.90;28.00;;;;;;;9.97;86.43;98165.27;85670;1315;22824;-70
2022/09/30 07:20:49;;;;;;;49.90;29.40;;;;;;;10.00;86.35;98171.77;85773;1315;22863;-71
2022/09/30 07:23:52;;;;;;;52.40;29.30;;;;;;;9.98;86.50;98167.99;86108;1309;22621;-71
2022/09/30 07:26:54;;;;;;;53.00;30.30;;;;;;;10.02;86.25;98177.79;86110;1309;23775;-72
2022/09/30 07:33:01;;;;;;;51.40;31.40;;;;;;;10.02;86.23;98192.15;86949;1299;22588;-72
2022/09/30 07:36:06;;;;;;;54.80;31.00;;;;;;;10.03;86.25;98195.80;86812;1300;22620;-73
2022/09/30 07:39:05;;;;;;;54.60;30.30;;;;;;;10.05;86.39;98195.17;87104;1296;22642;-73
2022/09/30 07:45:09;;;;;;;49.40;29.80;;;;;;;10.10;86.38;98205.08;87407;1290;23906;-70
2022/09/30 07:48:41;;;;;;;53.60;29.10;;;;;;;10.12;86.29;98201.09;87498;1285;22632;-72
2022/09/30 07:51:14;;;;;;;45.60;28.20;;;;;;;10.12;86.18;98199.87;87816;1284;23779;-71
2022/09/30 07:54:16;;;;;;;47.00;30.10;;;;;;;10.11;86.69;98196.55;87924;1284;98098;-72
2022/09/30 07:57:20;;;;;;;48.80;29.70;;;;;;;10.12;86.47;98199.14;87909;1284;22567;-72
2022/09/30 08:00:21;;;;;;;49.60;28.10;;;;;;;10.14;86.31;98199.55;88161;1279;99048;-73
2022/09/30 08:03:24;;;;;;;49.60;29.30;;;;;;;10.14;86.44;98203.75;88647;1279;24217;-73
2022/09/30 08:06:24;;;;;;;;;;;;;;;;;;;;;
2022/09/30 08:21:19;;;;;;;58.50;30.70;;;;;;;10.22;86.64;98206.11;87788;1285;22589;-72
2022/09/30 08:24:04;;;;;;;52.50;29.30;;;;;;;10.23;86.42;98209.38;87762;1286;100321;-73
2022/09/30 08:30:00;;;;;;;56.40;30.50;;;;;;;10.18;86.45;98208.10;88333;1281;22579;-71
2022/09/30 08:33:03;;;;;;;52.60;30.10;;;;;;;10.20;86.69;98214.08;88378;1282;25540;-72
2022/09/30 08:35:54;;;;;;;;;;;;;;;;;;;;;
2022/09/30 08:38:20;;;;;;;60.80;32.60;;;;;;;10.19;86.39;98216.26;87968;1288;22568;-73
2022/09/30 08:41:02;;;;;;;59.60;31.90;;;;;;;10.19;86.77;98214.52;88732;1281;22617;-75
2022/09/30 08:47:22;;;;;;;56.60;31.80;;;;;;;10.19;86.84;98214.35;88819;1279;22666;-73
2022/09/30 08:50:21;;;;;;;59.20;33.20;;;;;;;10.18;86.68;98215.10;88693;1280;98422;-73
2022/09/30 08:53:26;;;;;;;58.30;31.80;;;;;;;10.19;86.53;98212.94;88697;1278;23212;-73
2022/09/30 08:56:41;;;;;;;60.90;32.20;;;;;;;10.22;86.77;98208.36;88009;1287;98707;-71
2022/09/30 08:59:16;;;;;;;;;;;;;;;;;;;;;
2022/09/30 09:02:12;;;;;;;;;;;;;;;;;;;;;
2022/09/30 09:11:32;;;;;;;58.90;29.80;;;;;;;10.34;86.99;98227.73;86441;1303;25361;-70
2022/09/30 09:14:37;;;;;;;;;;;;;;;;;;;;;
2022/09/30 09:17:42;;;;;;;60.70;28.80;;;;;;;10.38;87.01;98221.34;86623;1303;22642;-72
2022/09/30 09:24:09;;;;;;;50.00;28.50;;;;;;;10.45;86.80;98220.23;85838;1309;544338;-70
2022/09/30 09:27:05;;;;;;;44.30;24.80;;;;;;;10.42;86.80;98218.47;88050;1284;24314;-71
2022/09/30 09:33:02;;;;;;;50.20;25.90;;;;;;;10.43;86.95;98218.96;88048;1284;22735;-70
2022/09/30 09:39:38;;;;;;;;;;;;;;;;;;;;;
2022/09/30 09:42:41;;;;;;;40.90;23.00;;;;;;;10.51;87.06;98214.95;86518;1298;22670;-70
2022/09/30 09:45:32;;;;;;;40.80;24.90;;;;;;;10.55;87.05;98219.09;86096;1303;22679;-69
2022/09/30 09:48:34;;;;;;;42.00;24.40;;;;;;;10.60;87.19;98220.39;86114;1306;22621;-69
2022/09/30 09:51:36;;;;;;;33.40;21.20;;;;;;;10.62;87.09;98219.86;86239;1306;22749;-69
2022/09/30 09:54:40;;;;;;;38.30;23.00;;;;;;;10.66;86.99;98223.90;86210;1305;22933;-69
2022/09/30 09:57:42;;;;;;;;;;;;;;;;;;;;;
2022/09/30 10:07:13;;;;;;;31.70;20.70;;;;;;;10.68;86.74;98231.67;86749;1297;98946;-69
2022/09/30 10:13:58;;;;;;;35.90;22.90;;;;;;;10.72;86.90;98233.55;85625;1309;543614;-69
2022/09/30 10:17:03;;;;;;;36.50;22.80;;;;;;;10.71;87.00;98236.91;87837;1286;22614;-69
2022/09/30 10:20:06;;;;;;;40.70;21.40;;;;;;;10.72;87.02;98242.14;87704;1286;97144;-68
2022/09/30 10:23:10;;;;;;;37.80;22.60;;;;;;;10.73;87.12;98248.76;87897;1286;24709;-70
2022/09/30 10:26:15;;;;;;;37.30;20.90;;;;;;;10.72;86.98;98247.57;88506;1274;98752;-69
2022/09/30 10:35:38;;;;;;;47.90;20.00;;;;;;;10.68;87.00;98258.53;88343;1279;23300;-69
2022/09/30 10:38:40;;;;;;;29.60;18.40;;;;;;;10.68;87.11;98257.86;88620;1278;98516;-68
2022/09/30 10:41:43;;;;;;;34.10;18.40;;;;;;;10.67;87.05;98265.79;88445;1279;22870;-69
2022/09/30 10:44:47;;;;;;;33.10;16.50;;;;;;;10.67;87.08;98269.36;88286;1279;97863;-69
2022/09/30 10:50:04;;;;;;;35.60;18.00;;;;;;;10.66;87.03;98277.30;88251;1278;98704;-68
2022/09/30 10:53:07;;;;;;;25.80;17.40;;;;;;;10.65;87.09;98278.58;88296;1280;22752;-68
2022/09/30 10:56:12;;;;;;;31.10;17.30;;;;;;;10.65;87.34;98278.20;87558;1285;99549;-69
2022/09/30 10:59:27;;;;;;;30.30;16.50;;;;;;;10.66;87.07;98279.58;87612;1284;22721;-69
2022/09/30 11:02:29;;;;;;;29.70;18.00;;;;;;;10.65;87.16;98281.78;87599;1284;98689;-69
2022/09/30 11:05:34;;;;;;;27.20;16.10;;;;;;;10.68;87.38;98285.77;87105;1293;22619;-69
2022/09/30 11:15:04;;;;;;;41.20;15.60;;;;;;;10.69;87.14;98289.94;87015;1296;97819;-69
2022/09/30 11:18:11;;;;;;;27.90;14.70;;;;;;;10.68;87.19;98288.96;87132;1294;25450;-70
2022/09/30 11:21:26;;;;;;;35.30;16.00;;;;;;;10.68;87.25;98283.30;87305;1294;25377;-70
2022/09/30 11:24:30;;;;;;;22.70;15.70;;;;;;;10.71;87.15;98285.44;87159;1296;22560;-70
2022/09/30 11:31:13;;;;;;;27.10;16.10;;;;;;;10.78;87.49;98288.88;87025;1307;543072;-70
2022/09/30 11:34:32;;;;;;;19.30;13.40;;;;;;;10.79;87.42;98287.42;89421;1284;22684;-70
2022/09/30 11:37:23;;;;;;;21.20;14.90;;;;;;;10.82;87.43;98290.27;89368;1272;99271;-70
2022/09/30 11:40:28;;;;;;;19.90;15.00;;;;;;;10.86;87.45;98289.11;89341;1277;22516;-70
2022/09/30 11:43:46;;;;;;;;;;;;;;;;;;;;;
2022/09/30 11:49:53;;;;;;;23.70;13.30;;;;;;;10.96;87.49;98295.36;88910;1274;98496;-70
2022/09/30 11:56:19;;;;;;;14.10;12.40;;;;;;;11.00;87.60;98298.95;88754;1277;97932;-69
2022/09/30 11:59:13;;;;;;;12.60;11.30;;;;;;;11.04;87.52;98298.05;88389;1281;23376;-69
2022/09/30 12:02:21;;;;;;;14.30;11.40;;;;;;;11.06;87.43;98297.05;87931;1287;97504;-69
2022/09/30 12:05:26;;;;;;;12.50;11.30;;;;;;;11.09;87.52;98298.13;88008;1286;24248;-70
2022/09/30 12:08:41;;;;;;;11.70;10.20;;;;;;;11.12;87.55;98301.06;87503;1291;97546;-69
2022/09/30 12:11:39;;;;;;;13.60;11.20;;;;;;;11.15;87.56;98301.25;87581;1291;22704;-69
2022/09/30 12:17:53;;;;;;;12.70;10.60;;;;;;;11.21;87.49;98300.33;87563;1291;22623;-69
2022/09/30 12:20:55;;;;;;;13.60;9.40;;;;;;;11.23;87.53;98301.30;86889;1300;99415;-69
2022/09/30 12:24:12;;;;;;;10.40;9.40;;;;;;;11.25;87.46;98304.66;87003;1300;22603;-68
2022/09/30 12:33:20;;;;;;;9.90;9.00;;;;;;;11.35;87.49;98304.94;87109;1297;98963;-69
2022/09/30 12:42:44;;;;;;;9.10;8.10;;;;;;;11.45;87.31;98315.96;87692;1288;22615;-69
2022/09/30 12:45:50;;;;;;;10.30;7.70;;;;;;;11.45;87.32;98322.81;87984;1284;24267;-71
2022/09/30 12:48:46;;;;;;;11.10;8.50;;;;;;;11.46;87.48;98319.02;88185;1285;24391;-70
2022/09/30 12:51:48;;;;;;;8.70;7.90;;;;;;;11.50;87.50;98322.51;88636;1284;22606;-69
2022/09/30 12:54:48;;;;;;;;;;;;;;;;;;;;;
2022/09/30 12:57:45;;;;;;;;;;;;;;;;;;;;;
2022/09/30 13:00:55;;;;;;;7.50;6.90;;;;;;;11.60;87.55;98333.11;88133;1284;24291;-70
2022/09/30 13:03:58;;;;;;;7.40;6.60;;;;;;;11.66;87.44;98333.61;87848;1290;22576;-71
2022/09/30 13:07:00;;;;;;;7.50;6.60;;;;;;;11.71;87.68;98340.55;87560;1293;22616;-71
2022/09/30 13:10:17;;;;;;;10.10;5.80;;;;;;;11.73;87.58;98340.19;87570;1294;22611;-73
2022/09/30 13:13:22;;;;;;;6.90;6.30;;;;;;;11.77;87.38;98343.34;87512;1293;23195;-70
2022/09/30 13:16:16;;;;;;;7.40;6.80;;;;;;;11.79;87.39;98348.86;86404;1308;22698;-70
2022/09/30 13:23:24;;;;;;;5.60;5.10;;;;;;;11.88;87.42;98353.73;86090;1311;543298;-71
2022/09/30 13:29:40;;;;;;;6.70;5.50;;;;;;;11.89;87.22;98364.57;87957;1287;22706;-70
2022/09/30 13:32:56;;;;;;;5.60;5.20;;;;;;;11.89;87.12;98369.30;87670;1290;98330;-69
2022/09/30 13:38:44;;;;;;;;;;;;;;;;;;;;;
2022/09/30 13:41:43;;;;;;;;;;;;;;;;;;;;;
2022/09/30 13:44:49;;;;;;;6.30;5.30;;;;;;;12.00;87.10;98370.60;87203;1297;97513;-69
2022/09/30 13:47:42;;;;;;;;;;;;;;;;;;;;;
2022/09/30 13:50:41;;;;;;;;;;;;;;;;;;;;;
2022/09/30 14:03:16;;;;;;;5.20;4.80;;;;;;;12.00;87.13;98358.75;87843;1287;98609;-69
2022/09/30 14:09:42;;;;;;;6.30;4.90;;;;;;;12.03;87.23;98363.04;87789;1287;97020;-68
2022/09/30 14:15:58;;;;;;;6.60;4.20;;;;;;;12.03;87.17;98373.95;89421;1284;22602;-70
2022/09/30 14:19:12;;;;;;;5.00;4.60;;;;;;;12.03;87.14;98377.82;87778;1285;23807;-70
2022/09/30 14:22:03;;;;;;;6.10;5.50;;;;;;;12.03;87.08;98377.42;87716;1284;22598;-70
2022/09/30 14:25:24;;;;;;;6.60;5.80;;;;;;;12.04;87.17;98381.23;87277;1290;24431;-70
2022/09/30 14:40:56;;;;;;;5.70;5.20;;;;;;;11.98;87.09;98394.81;86107;1304;23348;-70
2022/09/30 14:44:04;;;;;;;6.70;6.10;;;;;;;12.00;87.09;98389.99;86134;1304;24266;-70
2022/09/30 14:47:04;;;;;;;10.60;5.90;;;;;;;12.00;87.08;98398.77;86166;1304;22646;-71
2022/09/30 14:50:08;;;;;;;7.40;6.70;;;;;;;12.00;87.04;98396.14;86261;1304;22292;-71
2022/09/30 14:53:03;;;;;;;8.80;6.60;;;;;;;12.00;87.08;98396.83;86133;1306;24285;-69
2022/09/30 15:11:31;;;;;;;5.80;5.30;;;;;;;12.01;87.25;98419.62;84995;1318;24288;-71
2022/09/30 15:14:25;;;;;;;8.60;6.30;;;;;;;12.01;87.28;98417.20;85000;1318;98536;-71
2022/09/30 15:17:17;;;;;;;6.30;5.80;;;;;;;12.01;87.10;98418.77;85459;1315;22854;-70
2022/09/30 15:20:21;;;;;;;7.60;6.90;;;;;;;12.00;87.19;98414.79;85793;1315;98722;-71
2022/09/30 15:23:22;;;;;;;6.80;6.20;;;;;;;12.00;87.16;98413.57;85767;1309;24556;-70
2022/09/30 15:29:19;;;;;;;6.60;6.10;;;;;;;11.97;87.28;98419.88;85530;1315;22607;-70
2022/09/30 15:32:20;;;;;;;7.30;6.60;;;;;;;11.98;87.10;98429.37;85471;1315;97784;-70
2022/09/30 15:35:22;;;;;;;6.90;6.10;;;;;;;11.98;87.24;98438.52;85797;1306;22750;-69
2022/09/30 15:38:26;;;;;;;7.00;6.40;;;;;;;11.98;87.22;98441.84;86054;1305;99328;-70
2022/09/30 15:41:28;;;;;;;7.70;7.00;;;;;;;11.98;87.18;98444.31;86549;1299;27795;-71
2022/09/30 15:50:47;;;;;;;7.70;7.00;;;;;;;11.99;87.12;98450.79;86900;1293;98893;-70
2022/09/30 15:53:59;;;;;;;8.20;7.40;;;;;;;11.98;87.18;98452.59;87268;1290;22580;-70
2022/09/30 15:57:02;;;;;;;8.10;7.30;;;;;;;11.98;87.05;98462.98;87338;1290;98360;-72
2022/09/30 15:59:47;;;;;;;8.10;7.40;;;;;;;11.99;87.10;98466.29;87280;1290;22592;-71
2022/09/30 16:05:49;;;;;;;8.10;7.30;;;;;;;11.97;87.20;98462.73;87116;1291;22937;-71
2022/09/30 16:18:10;;;;;;;13.50;9.20;;;;;;;11.93;87.22;98472.60;87168;1292;22591;-71
2022/09/30 16:21:15;;;;;;;14.70;10.00;;;;;;;11.91;87.19;98466.69;87206;1291;98468;-73
2022/09/30 16:24:27;;;;;;;11.10;9.80;;;;;;;11.91;87.16;98470.77;87978;1284;23361;-73
2022/09/30 16:27:14;;;;;;;11.70;10.60;;;;;;;11.90;87.25;98469.98;87876;1283;97338;-72
2022/09/30 16:30:16;;;;;;;16.90;10.60;;;;;;;11.87;87.06;98469.44;87574;1289;22717;-72
2022/09/30 16:33:18;;;;;;;23.10;11.00;;;;;;;11.89;87.28;98481.77;87439;1291;98867;-73
2022/09/30 16:39:24;;;;;;;14.10;11.70;;;;;;;11.91;87.36;98505.14;87464;1290;98929;-72
2022/09/30 16:42:26;;;;;;;10.20;9.00;;;;;;;11.91;87.25;98508.64;87603;1290;22737;-72
2022/09/30 16:51:45;;;;;;;11.40;10.10;;;;;;;11.91;87.23;98513.38;88031;1287;99427;-72
2022/09/30 16:54:50;;;;;;;14.30;10.40;;;;;;;11.92;87.27;98514.89;88097;1287;22611;-72
2022/09/30 16:57:46;;;;;;;16.40;10.70;;;;;;;11.92;87.30;98519.14;87367;1294;99213;-71
2022/09/30 17:00:50;;;;;;;16.20;10.40;;;;;;;11.91;87.34;98509.36;87323;1294;22589;-72
2022/09/30 17:03:55;;;;;;;15.80;11.30;;;;;;;11.91;87.20;98512.13;87453;1294;98898;-71
2022/09/30 17:06:39;;;;;;;17.50;10.00;;;;;;;11.91;87.37;98506.17;87521;1294;22529;-72
2022/09/30 17:09:34;;;;;;;11.00;9.50;;;;;;;11.89;87.31;98513.83;87715;1291;97798;-72
2022/09/30 17:15:47;;;;;;;11.30;8.70;;;;;;;11.91;87.20;98522.90;86624;1310;543163;-72
2022/09/30 17:18:28;;;;;;;;;;;;;;;11.88;87.10;98527.11;88292;1290;23872;-72
2022/09/30 17:21:16;;;;;;;14.20;8.00;;;;;;;11.86;87.21;98522.85;88178;1289;83317;-72
2022/09/30 17:24:20;;;;;;;11.40;8.20;;;;;;;11.85;87.11;98519.76;87826;1299;22634;-72
2022/09/30 17:27:23;;;;;;;11.00;8.10;;;;;;;11.83;87.20;98515.48;88179;1296;97656;-72
2022/09/30 17:30:25;;;;;;;11.60;9.10;;;;;;;11.71;87.22;98506.19;84247;1293;5351432;-72
2022/09/30 17:33:28;;;;;;;13.80;8.60;;;;;;;11.79;87.06;98524.33;88034;1293;97536;-71
2022/09/30 17:39:30;;;;;;;16.50;11.60;;;;;;;11.76;86.93;98521.14;87089;1306;98909;-72
2022/09/30 17:45:26;;;;;;;37.80;25.80;;;;;;;11.72;86.97;98528.98;86553;1307;97705;-71
2022/09/30 17:47:26;;;;;;;36.60;25.80;;;;;;;11.69;87.22;98530.05;87244;1307;22950;-72
2022/09/30 17:50:20;;;;;;;33.90;23.50;;;;;;;11.67;87.15;98533.48;86654;1310;97787;-72
2022/09/30 17:53:18;;;;;;;;;;;;;;;;;;;;;
2022/09/30 17:56:12;;;;;;;29.30;20.80;;;;;;;11.59;87.15;98555.41;87041;1300;98820;-71
2022/09/30 17:58:46;;;;;;;;;;;;;;;;;;;;;
2022/09/30 18:01:25;;;;;;;31.40;19.70;;;;;;;11.55;86.96;98567.98;88089;1295;22822;-72
2022/09/30 18:04:30;;;;;;;27.80;19.90;;;;;;;11.52;87.01;98568.48;88577;1294;23049;-73
2022/09/30 18:07:33;;;;;;;29.00;20.00;;;;;;;11.51;86.95;98569.98;87911;1303;22693;-73
2022/09/30 18:10:35;;;;;;;30.60;20.20;;;;;;;11.51;87.04;98573.00;87603;1303;23792;-73
2022/09/30 18:13:00;;;;;;;;;;;;;;;;;;;;;
2022/09/30 18:15:19;;;;;;;;;;;;;;;;;;;;;
2022/09/30 18:18:20;;;;;;;27.20;20.50;;;;;;;11.48;86.94;98579.45;87893;1300;24299;-73
2022/09/30 18:20:44;;;;;;;26.60;19.60;;;;;;;11.46;86.87;98578.17;87118;1303;97827;-72
2022/09/30 18:22:55;;;;;;;30.60;20.90;;;;;;;11.47;87.05;98584.79;87183;1303;22575;-72
2022/09/30 18:25:58;;;;;;;28.00;20.60;;;;;;;11.47;87.24;98582.73;87434;1303;25445;-71
2022/09/30 18:27:43;;;;;;;34.50;21.30;;;;;;;11.46;87.21;98577.84;87486;1303;22668;-71
2022/09/30 18:29:49;;;;;;;27.30;21.70;;;;;;;11.47;87.29;98586.22;87585;1303;22562;-73
2022/09/30 18:32:05;;;;;;;;;;;;;;;;;;;;;
2022/09/30 18:34:43;;;;;;;;;;;;;;;;;;;;;
2022/09/30 18:37:46;;;;;;;;;;;;;;;;;;;;;
2022/09/30 18:40:28;;;;;;;;;;;;;;;;;;;;;
2022/09/30 18:43:09;;;;;;;41.40;27.60;;;;;;;11.47;87.20;98585.18;87383;1303;22636;-73
2022/09/30 18:45:55;;;;;;;45.10;27.90;;;;;;;11.47;86.94;98588.70;87404;1299;98783;-73
2022/09/30 18:48:25;;;;;;;;;;;;;;;;;;;;;
2022/09/30 18:50:33;;;;;;;43.30;28.00;;;;;;;11.46;87.24;98588.05;88246;1291;97654;-72
2022/09/30 18:52:48;;;;;;;41.50;28.00;;;;;;;11.46;87.16;98589.42;88436;1290;22620;-73
2022/09/30 18:55:09;;;;;;;46.60;30.40;;;;;;;11.46;87.14;98590.68;88060;1289;24245;-72
2022/09/30 18:57:12;;;;;;;39.70;29.80;;;;;;;11.46;87.03;98591.02;88579;1288;98219;-74
2022/09/30 18:59:26;;;;;;;38.00;24.90;;;;;;;11.47;87.16;98597.52;88710;1290;22522;-72
2022/09/30 19:01:38;;;;;;;35.20;23.30;;;;;;;11.46;87.16;98600.92;88432;1287;98390;-72
2022/09/30 19:04:04;;;;;;;30.40;22.60;;;;;;;11.44;87.09;98601.17;88644;1287;22665;-72
2022/09/30 19:06:46;;;;;;;;;;;;;;;;;;;;;
2022/09/30 19:09:31;;;;;;;36.40;25.40;;;;;;;11.42;87.05;98604.11;88641;1286;98765;-72